Date,TemperatureHighF,TemperatureAvgF,TemperatureLowF,DewpointHighF,DewpointAvgF,DewpointLowF,HumidityHigh,HumidityAvg,HumidityLow,PressureMaxIn,PressureMinIn,WindSpeedMaxMPH,WindSpeedAvgMPH,GustSpeedMaxMPH,PrecipitationSumIn
2013-2-1,15.3,9.5,3.6,7.7,1.6,-3.0,78,70,61,30.44,30.14,17,7,28,0.00
2013-2-2,26.1,21.4,15.3,24.3,17.9,7.6,97,86,70,30.31,30.03,11,4,18,0.00
2013-2-3,22.6,16.7,10.4,20.0,12.5,7.0,91,83,77,30.14,30.00,14,5,24,0.00
2013-2-4,37.2,27.4,19.0,29.5,21.3,13.8,89,78,66,30.13,29.85,8,2,16,0.00
2013-2-5,35.8,27.5,19.8,31.8,24.2,18.6,96,87,72,30.08,29.88,13,3,17,0.00
2013-2-6,39.4,31.8,28.2,28.3,23.4,19.6,88,72,51,30.31,30.08,10,3,14,0.00
2013-2-7,53.6,40.3,30.0,41.3,31.8,26.4,99,74,44,30.25,29.86,8,3,15,0.13
2013-2-8,40.5,33.4,28.9,40.2,29.1,20.9,99,85,68,30.41,29.87,13,6,22,0.01
2013-2-9,38.8,30.1,21.0,26.4,22.5,19.1,95,74,52,30.46,30.23,11,3,15,0.00
2013-2-10,49.5,41.3,31.5,48.8,34.8,22.8,99,78,63,30.23,29.75,15,5,30,0.06
2013-2-11,49.6,38.6,30.9,49.0,31.1,23.7,99,75,61,30.09,29.73,19,9,37,0.00
2013-2-12,41.9,32.1,27.1,31.1,26.4,22.5,93,80,62,30.18,30.00,13,4,19,0.00
2013-2-13,45.1,32.5,25.3,29.5,26.3,23.9,96,79,51,30.00,29.83,8,2,13,0.00
2013-2-14,47.7,38.2,33.4,36.8,32.8,28.3,98,82,65,30.04,29.84,17,5,27,0.00
2013-2-15,34.2,29.8,20.8,30.4,25.2,16.2,95,83,60,30.22,30.03,10,3,16,0.00
2013-2-16,24.3,20.9,17.1,20.5,12.3,5.0,90,70,49,30.19,30.13,14,6,24,0.00
2013-2-17,32.5,20.8,9.3,14.2,9.5,3.5,90,64,33,30.28,30.17,7,2,11,0.00
2013-2-18,57.0,39.4,24.4,42.8,26.0,12.2,92,59,41,30.20,29.64,20,6,33,0.08
2013-2-19,45.0,24.8,18.5,43.8,18.7,9.4,99,77,63,30.17,29.62,24,13,40,0.07
2013-2-20,22.8,17.2,9.9,13.0,8.6,3.3,78,69,58,30.37,30.17,21,6,28,0.00
2013-2-21,27.7,24.0,18.7,23.3,17.6,13.0,96,76,66,30.39,30.08,14,5,29,0.00
2013-2-22,35.4,32.1,25.0,35.2,31.0,22.9,99,96,88,30.09,29.91,15,4,24,0.06
2013-2-23,31.8,28.1,23.2,28.9,22.4,20.6,92,79,68,30.05,29.99,11,5,20,0.00
2013-2-24,38.3,29.0,20.7,24.2,21.3,18.3,92,74,50,30.21,30.02,10,3,14,0.00
2013-2-25,44.1,32.7,23.9,28.5,24.8,21.0,93,74,48,30.23,29.98,11,3,17,0.00
2013-2-26,39.0,34.0,31.6,38.8,31.6,25.2,99,91,73,29.98,29.47,14,3,22,0.63
2013-2-27,39.9,34.3,30.6,39.7,33.6,30.1,99,97,88,29.74,29.53,13,6,24,0.05
2013-2-28,38.3,33.5,30.6,34.5,32.1,30.1,99,95,81,30.03,29.71,11,6,19,0.05